Time;durP1;ratioP1;P1;durP2;ratioP2;P2;SDS_P1;SDS_P2;PMS_P1;PMS_P2;Temp;Humidity;BMP_temperature;BMP_pressure;BME280_temperature;BME280_humidity;BME280_pressure;Samples;Min_cycle;Max_cycle;Signal;HPM_P1;HPM_P2
2021/09/11 00:00:09;;;;;;;10.13;4.45;;;;;;;18.54;100.00;101376.38;5071252;28;20118;-38
2021/09/11 00:02:37;;;;;;;7.57;3.08;;;;;;;18.56;100.00;101379.72;5070506;28;21008;-37
2021/09/11 00:05:06;;;;;;;7.93;3.05;;;;;;;18.58;100.00;101371.69;5067888;28;20123;-34
2021/09/11 00:07:34;;;;;;;9.48;3.90;;;;;;;18.58;100.00;101368.06;5070722;28;20060;-37
2021/09/11 00:10:02;;;;;;;9.40;3.40;;;;;;;18.59;100.00;101366.91;5071176;28;20056;-34
2021/09/11 00:12:31;;;;;;;7.72;3.40;;;;;;;18.59;100.00;101366.91;5071026;28;20051;-33
2021/09/11 00:14:59;;;;;;;8.48;3.67;;;;;;;18.61;100.00;101370.22;5070165;28;20053;-36
2021/09/11 00:17:26;;;;;;;10.27;3.95;;;;;;;18.62;100.00;101368.22;5071068;28;20407;-39
2021/09/11 00:19:54;;;;;;;10.70;4.15;;;;;;;18.63;100.00;101370.72;5070756;28;20491;-32
2021/09/11 00:22:22;;;;;;;10.38;3.90;;;;;;;18.61;100.00;101364.56;5070675;28;20076;-39
2021/09/11 00:24:50;;;;;;;7.22;3.70;;;;;;;18.61;100.00;101369.38;5070710;28;20052;-36
2021/09/11 00:27:18;;;;;;;8.63;3.00;;;;;;;18.60;100.00;101374.22;5070844;28;20044;-36
2021/09/11 00:29:47;;;;;;;8.45;3.63;;;;;;;18.61;100.00;101377.88;5070090;28;20613;-34
2021/09/11 00:32:15;;;;;;;8.82;3.38;;;;;;;18.59;100.00;101375.38;5070992;28;20495;-33
2021/09/11 00:34:43;;;;;;;12.57;4.40;;;;;;;18.59;100.00;101369.72;5070434;28;20037;-34
2021/09/11 00:37:11;;;;;;;9.00;3.88;;;;;;;18.60;100.00;101362.91;5070507;28;20052;-35
2021/09/11 00:39:38;;;;;;;11.70;3.42;;;;;;;18.59;100.00;101366.91;5086161;28;20371;-33
2021/09/11 00:42:06;;;;;;;10.30;3.10;;;;;;;18.59;100.00;101370.56;5070742;28;20114;-36
2021/09/11 00:44:34;;;;;;;8.07;2.90;;;;;;;18.59;100.00;101366.91;5070203;28;20482;-43
2021/09/11 00:47:03;;;;;;;8.60;3.33;;;;;;;18.62;100.00;101357.75;5071055;28;20057;-35
2021/09/11 00:49:31;;;;;;;7.28;3.05;;;;;;;18.61;100.00;101364.56;5070743;28;20135;-42
2021/09/11 00:51:59;;;;;;;10.55;3.28;;;;;;;18.64;100.00;101372.38;5070115;28;20049;-37
2021/09/11 00:54:27;;;;;;;11.20;3.92;;;;;;;18.62;100.00;101366.22;5070566;28;20507;-37
2021/09/11 00:56:56;;;;;;;11.27;3.42;;;;;;;18.61;100.00;101360.91;5069820;28;20151;-33
2021/09/11 00:59:24;;;;;;;8.85;3.30;;;;;;;18.63;100.00;101372.69;5070773;28;20043;-34
2021/09/11 01:01:51;;;;;;;11.07;3.17;;;;;;;18.62;100.00;101369.03;5069761;28;20048;-43
2021/09/11 01:04:21;;;;;;;9.98;3.50;;;;;;;18.63;100.00;101362.22;5070027;28;20807;-41
2021/09/11 01:06:50;;;;;;;8.45;3.53;;;;;;;18.62;100.00;101366.22;5070545;28;20067;-33
2021/09/11 01:09:17;;;;;;;6.78;3.00;;;;;;;18.63;100.00;101362.22;5070299;28;20436;-41
2021/09/11 01:11:46;;;;;;;10.30;3.75;;;;;;;18.62;100.00;101360.56;5070040;28;20056;-37
2021/09/11 01:14:14;;;;;;;10.13;3.80;;;;;;;18.61;100.00;101356.09;5070658;28;20132;-36
2021/09/11 01:16:42;;;;;;;12.52;4.30;;;;;;;18.59;100.00;101356.41;5070454;28;20486;-33
2021/09/11 01:19:10;;;;;;;10.98;3.28;;;;;;;18.58;100.00;101370.91;5070135;28;20411;-33
2021/09/11 01:21:40;;;;;;;10.75;3.80;;;;;;;18.58;100.00;101365.25;5070057;28;20144;-34
2021/09/11 01:24:09;;;;;;;10.85;3.85;;;;;;;18.58;100.00;101363.22;5070673;28;20053;-43
2021/09/11 01:26:37;;;;;;;10.32;3.60;;;;;;;18.58;100.00;101368.88;5085232;28;20567;-39
2021/09/11 01:29:09;;;;;;;9.70;3.53;;;;;;;18.61;100.00;101363.72;5070554;28;20053;-41
2021/09/11 01:31:37;;;;;;;14.32;3.72;;;;;;;18.58;100.00;101363.22;5070067;28;20048;-39
2021/09/11 01:34:05;;;;;;;10.50;3.40;;;;;;;18.59;100.00;101362.06;5069937;28;20049;-38
2021/09/11 01:36:33;;;;;;;9.30;3.20;;;;;;;18.59;100.00;101370.56;5069742;28;20056;-40
2021/09/11 01:39:01;;;;;;;11.00;3.03;;;;;;;18.59;100.00;101362.06;5070143;28;20083;-39
2021/09/11 01:41:30;;;;;;;9.10;3.00;;;;;;;18.61;100.00;101363.72;5069971;28;20123;-42
2021/09/11 01:43:58;;;;;;;10.85;3.58;;;;;;;18.60;100.00;101351.59;5071460;28;20131;-37
2021/09/11 01:46:26;;;;;;;10.05;3.08;;;;;;;18.63;100.00;101361.41;5073211;28;20041;-33
2021/09/11 01:48:54;;;;;;;10.88;3.10;;;;;;;18.64;100.00;101366.72;5073646;28;20506;-34
2021/09/11 01:51:21;;;;;;;11.90;3.47;;;;;;;18.64;100.00;101360.22;5073515;28;20555;-33
2021/09/11 01:53:49;;;;;;;8.63;2.60;;;;;;;18.66;100.00;101361.53;5073421;28;20079;-33
2021/09/11 01:56:17;;;;;;;13.00;2.83;;;;;;;18.67;100.00;101356.72;5073249;28;20139;-33
2021/09/11 01:58:46;;;;;;;10.38;2.67;;;;;;;18.67;100.00;101359.53;5072619;28;20131;-35
2021/09/11 02:01:14;;;;;;;13.77;3.92;;;;;;;18.66;100.00;101360.72;5073114;28;20464;-39
2021/09/11 02:03:42;;;;;;;11.48;3.17;;;;;;;18.65;100.00;101365.53;5073687;28;20044;-36
2021/09/11 02:06:10;;;;;;;11.95;3.22;;;;;;;18.64;100.00;101358.22;5073479;28;20052;-42
2021/09/11 02:08:38;;;;;;;11.35;2.97;;;;;;;18.64;100.00;101363.88;5072544;28;20162;-40
2021/09/11 02:11:05;;;;;;;13.85;3.17;;;;;;;18.65;100.00;101364.72;5073481;28;20082;-40
2021/09/11 02:13:33;;;;;;;11.15;3.10;;;;;;;18.64;100.00;101365.88;5072925;28;20506;-34
2021/09/11 02:16:02;;;;;;;12.30;2.42;;;;;;;18.64;100.00;101363.06;5072603;28;20047;-36
2021/09/11 02:18:30;;;;;;;15.73;3.53;;;;;;;18.62;100.00;101354.91;5073287;28;20059;-35
2021/09/11 02:20:58;;;;;;;15.27;4.18;;;;;;;18.63;100.00;101364.22;5072192;28;20454;-41
2021/09/11 02:23:26;;;;;;;10.43;2.70;;;;;;;18.62;100.00;101360.56;5072519;28;20071;-35
2021/09/11 02:25:54;;;;;;;17.27;3.45;;;;;;;18.63;100.00;101361.41;5073281;28;20052;-32
2021/09/11 02:28:22;;;;;;;11.80;3.03;;;;;;;18.62;100.00;101357.75;5072669;28;20058;-35
2021/09/11 02:30:50;;;;;;;13.10;2.97;;;;;;;18.63;100.00;101356.56;5073467;28;20083;-39
2021/09/11 02:33:19;;;;;;;12.02;3.10;;;;;;;18.63;100.00;101353.75;5072883;28;20044;-36
2021/09/11 02:35:47;;;;;;;12.13;3.13;;;;;;;18.62;100.00;101352.09;5072708;28;20186;-35
2021/09/11 02:38:15;;;;;;;10.73;2.65;;;;;;;18.62;100.00;101363.41;5072728;28;20410;-33
2021/09/11 02:40:43;;;;;;;10.32;3.20;;;;;;;18.61;100.00;101356.09;5072989;28;20086;-36
2021/09/11 02:43:11;;;;;;;15.15;3.45;;;;;;;18.61;100.00;101358.09;5071978;28;20458;-32
2021/09/11 02:45:39;;;;;;;11.55;3.00;;;;;;;18.59;100.00;101356.41;5072895;28;20131;-34
2021/09/11 02:48:06;;;;;;;10.90;2.83;;;;;;;18.59;100.00;101355.59;5072589;28;20043;-42
2021/09/11 02:50:36;;;;;;;12.65;3.15;;;;;;;18.61;100.00;101355.25;5072024;28;20565;-36
2021/09/11 02:53:04;;;;;;;14.77;3.58;;;;;;;18.61;100.00;101358.91;5072800;28;20041;-36
2021/09/11 02:55:31;;;;;;;16.48;3.30;;;;;;;18.61;100.00;101361.72;5071210;28;20143;-41
2021/09/11 02:57:59;;;;;;;13.32;2.92;;;;;;;18.59;100.00;101362.06;5072075;28;20129;-42
2021/09/11 03:00:27;;;;;;;9.43;3.13;;;;;;;18.59;100.00;101355.59;5072441;28;20048;-40
2021/09/11 03:02:55;;;;;;;10.60;2.78;;;;;;;18.60;100.00;101357.25;5072640;28;20127;-38
2021/09/11 03:05:24;;;;;;;13.18;2.63;;;;;;;18.58;100.00;101349.06;5071853;28;20049;-38
2021/09/11 03:07:53;;;;;;;10.68;2.97;;;;;;;18.57;100.00;101346.63;5072191;28;20059;-37
2021/09/11 03:10:21;;;;;;;12.55;2.97;;;;;;;18.56;100.00;101351.44;5072225;28;20083;-33
2021/09/11 03:12:49;;;;;;;14.15;3.33;;;;;;;18.55;100.00;101354.59;5072558;28;20048;-38
2021/09/11 03:15:18;;;;;;;12.65;3.30;;;;;;;18.52;100.00;101346.81;5072000;28;20408;-35
2021/09/11 03:17:45;;;;;;;10.63;3.05;;;;;;;18.54;100.00;101352.94;5071647;28;20044;-34
2021/09/11 03:20:13;;;;;;;15.00;3.45;;;;;;;18.53;100.00;101356.94;5071843;28;20567;-37
2021/09/11 03:22:41;;;;;;;11.35;3.33;;;;;;;18.51;100.00;101356.47;5071873;28;20139;-35
2021/09/11 03:25:11;;;;;;;13.20;3.20;;;;;;;18.50;100.00;101347.16;5071228;28;20449;-40
2021/09/11 03:27:39;;;;;;;17.08;3.50;;;;;;;18.50;100.00;101351.97;5072178;28;20051;-34
2021/09/11 03:30:09;;;;;;;16.30;3.90;;;;;;;18.50;100.00;101354.78;5071713;28;20560;-41
2021/09/11 03:32:38;;;;;;;12.98;3.70;;;;;;;18.48;100.00;101357.97;5071307;28;20048;-37
2021/09/11 03:35:07;;;;;;;10.50;3.72;;;;;;;18.49;100.00;101350.31;5071456;28;20147;-39
2021/09/11 03:37:35;;;;;;;10.57;3.05;;;;;;;18.48;100.00;101354.31;5071819;28;20485;-36
2021/09/11 03:40:02;;;;;;;14.40;3.53;;;;;;;18.48;100.00;101343.81;5071267;28;20048;-44
2021/09/11 03:42:32;;;;;;;11.93;4.13;;;;;;;18.50;100.00;101347.16;5071759;28;20694;-39
2021/09/11 03:45:00;;;;;;;13.15;3.65;;;;;;;18.50;100.00;101351.97;5071503;28;20055;-39
2021/09/11 03:47:29;;;;;;;13.00;3.42;;;;;;;18.49;100.00;101351.16;5066112;28;20097;-44
2021/09/11 03:49:57;;;;;;;10.60;3.85;;;;;;;18.50;100.00;101351.97;5071712;28;20044;-35
2021/09/11 03:52:25;;;;;;;10.50;3.28;;;;;;;18.50;100.00;101357.63;5071397;28;20052;-34
2021/09/11 03:54:52;;;;;;;10.18;2.97;;;;;;;18.51;100.00;101351.63;5071148;28;20052;-36
2021/09/11 03:57:20;;;;;;;10.15;2.60;;;;;;;18.52;100.00;101355.28;5071040;28;20051;-34
2021/09/11 03:59:49;;;;;;;13.07;3.50;;;;;;;18.52;100.00;101356.13;5070973;28;20048;-36
2021/09/11 04:02:17;;;;;;;13.70;3.50;;;;;;;18.51;100.00;101354.47;5071065;28;20139;-34
2021/09/11 04:04:45;;;;;;;14.13;3.40;;;;;;;18.51;100.00;101357.28;5071602;28;20077;-38
2021/09/11 04:07:13;;;;;;;14.57;3.70;;;;;;;18.51;100.00;101365.75;5070105;28;20056;-36
2021/09/11 04:09:41;;;;;;;10.48;2.97;;;;;;;18.50;100.00;101369.75;5071429;28;20049;-36
2021/09/11 04:12:09;;;;;;;8.68;2.50;;;;;;;18.51;100.00;101371.41;5071020;28;20131;-35
2021/09/11 04:14:37;;;;;;;14.95;3.00;;;;;;;18.53;100.00;101368.25;5070356;28;20033;-39
2021/09/11 04:17:06;;;;;;;14.00;3.13;;;;;;;18.54;100.00;101370.75;5070906;28;20087;-39
2021/09/11 04:19:34;;;;;;;11.23;3.20;;;;;;;18.53;100.00;101369.09;5071067;28;20135;-36
2021/09/11 04:22:02;;;;;;;15.55;3.40;;;;;;;18.54;100.00;101375.56;5069011;28;20055;-38
2021/09/11 04:24:30;;;;;;;12.20;3.20;;;;;;;18.54;100.00;101367.91;5071229;28;20048;-36
2021/09/11 04:26:57;;;;;;;10.38;3.22;;;;;;;18.55;100.00;101374.41;5070542;28;20064;-34
2021/09/11 04:29:25;;;;;;;8.85;2.80;;;;;;;18.56;100.00;101368.41;5070342;28;20050;-34
2021/09/11 04:31:53;;;;;;;15.13;3.70;;;;;;;18.55;100.00;101372.41;5069400;28;20143;-39
2021/09/11 04:34:22;;;;;;;16.05;3.83;;;;;;;18.56;100.00;101370.41;5067737;28;20053;-41
2021/09/11 04:36:50;;;;;;;15.90;3.75;;;;;;;18.55;100.00;101369.56;5067474;28;20040;-36
2021/09/11 04:39:18;;;;;;;13.40;3.60;;;;;;;18.53;100.00;101365.44;5070380;28;20037;-32
2021/09/11 04:41:46;;;;;;;11.93;3.47;;;;;;;18.53;100.00;101365.44;5070065;28;20064;-34
2021/09/11 04:44:13;;;;;;;12.27;2.90;;;;;;;18.53;100.00;101366.25;5068663;28;20106;-32
2021/09/11 04:46:41;;;;;;;10.23;3.63;;;;;;;18.55;100.00;101369.56;5070266;28;20068;-31
2021/09/11 04:49:10;;;;;;;12.15;3.30;;;;;;;18.55;100.00;101365.91;5070043;28;20078;-34
2021/09/11 04:51:39;;;;;;;9.57;2.97;;;;;;;18.55;100.00;101361.09;5070677;28;20135;-42
2021/09/11 04:54:06;;;;;;;13.07;3.35;;;;;;;18.56;100.00;101367.56;5067246;28;20099;-40
2021/09/11 04:56:34;;;;;;;16.73;3.85;;;;;;;18.53;100.00;101363.44;5070270;28;20044;-41
2021/09/11 04:59:02;;;;;;;14.07;3.83;;;;;;;18.54;100.00;101367.09;5070003;28;20032;-36
2021/09/11 05:01:30;;;;;;;13.88;3.72;;;;;;;18.56;100.00;101367.56;5070714;28;20060;-35
2021/09/11 05:03:58;;;;;;;14.68;4.03;;;;;;;18.55;100.00;101378.06;5069743;28;20415;-39
2021/09/11 05:06:26;;;;;;;12.50;3.83;;;;;;;18.54;100.00;101370.75;5070542;28;20049;-37
2021/09/11 05:08:55;;;;;;;11.98;4.07;;;;;;;18.56;100.00;101373.22;5070428;28;20059;-35
2021/09/11 05:11:23;;;;;;;14.25;4.18;;;;;;;18.54;100.00;101376.38;5070414;28;20051;-34
2021/09/11 05:13:51;;;;;;;16.73;4.28;;;;;;;18.54;100.00;101372.75;5070059;28;20072;-34
2021/09/11 05:16:18;;;;;;;12.57;3.75;;;;;;;18.52;100.00;101369.41;5070480;28;20150;-34
2021/09/11 05:18:46;;;;;;;13.70;3.42;;;;;;;18.52;100.00;101375.06;5070253;28;20499;-34
2021/09/11 05:21:14;;;;;;;13.60;3.45;;;;;;;18.52;100.00;101375.06;5074197;28;20075;-40
2021/09/11 05:23:43;;;;;;;14.85;4.30;;;;;;;18.51;100.00;101382.72;5073847;28;20505;-36
2021/09/11 05:26:12;;;;;;;11.50;3.13;;;;;;;18.50;100.00;101385.88;5073795;28;20048;-34
2021/09/11 05:28:40;;;;;;;12.75;3.60;;;;;;;18.50;100.00;101388.72;5073927;28;20127;-39
2021/09/11 05:31:08;;;;;;;19.27;4.00;;;;;;;18.48;100.00;101388.22;5073640;28;20135;-34
2021/09/11 05:33:36;;;;;;;14.27;3.78;;;;;;;18.47;100.00;101393.03;5073658;28;20143;-35
2021/09/11 05:36:04;;;;;;;11.02;3.92;;;;;;;18.47;100.00;101393.03;5073843;28;20040;-33
2021/09/11 05:38:32;;;;;;;11.43;3.38;;;;;;;18.48;100.00;101393.88;5073592;28;20045;-40
2021/09/11 05:41:00;;;;;;;12.98;3.53;;;;;;;18.49;100.00;101398.34;5073710;28;20080;-34
2021/09/11 05:43:29;;;;;;;16.85;4.10;;;;;;;18.49;100.00;101395.53;5073919;28;20072;-34
2021/09/11 05:45:57;;;;;;;13.05;4.10;;;;;;;18.48;100.00;101403.19;5073169;28;20143;-40
2021/09/11 05:48:24;;;;;;;14.27;4.05;;;;;;;18.51;100.00;101404.50;5073813;28;20130;-42
2021/09/11 05:50:52;;;;;;;9.27;2.95;;;;;;;18.51;100.00;101396.03;5073685;28;20048;-40
2021/09/11 05:53:20;;;;;;;12.13;3.95;;;;;;;18.50;100.00;101402.84;5073543;28;20403;-36
2021/09/11 05:55:48;;;;;;;15.95;3.80;;;;;;;18.51;100.00;101398.84;5073579;28;20079;-33
2021/09/11 05:58:16;;;;;;;10.45;4.03;;;;;;;18.54;100.00;101406.66;5073705;28;20151;-32
2021/09/11 06:00:45;;;;;;;12.23;3.70;;;;;;;18.54;100.00;101401.00;5072849;28;20135;-33
2021/09/11 06:03:14;;;;;;;14.85;4.05;;;;;;;18.56;100.00;101404.31;5071725;28;20063;-41
2021/09/11 06:05:42;;;;;;;14.73;3.63;;;;;;;18.57;100.00;101406.81;5072559;28;20055;-35
2021/09/11 06:08:10;;;;;;;14.45;4.15;;;;;;;18.58;100.00;101410.47;5072148;28;20063;-35
2021/09/11 06:10:38;;;;;;;14.80;4.68;;;;;;;18.57;100.00;101414.47;5072240;28;20087;-40
2021/09/11 06:13:05;;;;;;;11.10;3.70;;;;;;;18.57;100.00;101422.94;5072948;28;20048;-34
2021/09/11 06:15:33;;;;;;;12.38;4.10;;;;;;;18.57;100.00;101425.75;5071588;28;20106;-34
2021/09/11 06:18:03;;;;;;;12.95;4.28;;;;;;;18.58;100.00;101424.59;5072825;28;20045;-32
2021/09/11 06:20:31;;;;;;;10.80;3.95;;;;;;;18.58;100.00;101422.56;5071929;28;20071;-39
2021/09/11 06:22:59;;;;;;;12.90;3.63;;;;;;;18.59;100.00;101423.44;5072655;28;20076;-38
2021/09/11 06:25:27;;;;;;;10.10;3.88;;;;;;;18.61;100.00;101428.75;5072052;28;20483;-39
2021/09/11 06:27:55;;;;;;;12.90;4.15;;;;;;;18.61;100.00;101426.75;5071765;28;20048;-35
2021/09/11 06:30:23;;;;;;;10.27;4.00;;;;;;;18.61;100.00;101423.09;5072417;28;20075;-38
2021/09/11 06:32:52;;;;;;;11.40;3.90;;;;;;;18.61;100.00;101423.94;5071422;28;20055;-37
2021/09/11 06:35:21;;;;;;;13.30;3.53;;;;;;;18.62;100.00;101424.75;5071740;28;20082;-32
2021/09/11 06:37:51;;;;;;;10.57;4.00;;;;;;;18.62;100.00;101428.41;5072387;28;20069;-33
2021/09/11 06:40:19;;;;;;;12.13;4.00;;;;;;;18.63;100.00;101423.59;5071973;28;20491;-33
2021/09/11 06:42:47;;;;;;;11.35;4.25;;;;;;;18.64;100.00;101428.91;5071379;28;20052;-36
2021/09/11 06:45:15;;;;;;;11.43;4.13;;;;;;;18.64;100.00;101431.72;5072118;28;20048;-38
2021/09/11 06:47:43;;;;;;;11.60;3.83;;;;;;;18.65;100.00;101432.56;5071041;28;20127;-37
2021/09/11 06:50:12;;;;;;;12.52;4.10;;;;;;;18.68;100.00;101434.72;5071546;28;20098;-45
2021/09/11 06:52:41;;;;;;;13.60;4.15;;;;;;;18.70;100.00;101438.88;5071752;28;20052;-36
2021/09/11 06:55:10;;;;;;;12.73;4.25;;;;;;;18.71;100.00;101443.34;5071961;28;20127;-32
2021/09/11 06:57:38;;;;;;;10.02;3.08;;;;;;;18.72;100.00;101439.34;5070994;28;20396;-35
2021/09/11 07:00:07;;;;;;;11.50;5.85;;;;;;;18.75;100.00;101440.69;5071888;28;20060;-35
2021/09/11 07:02:35;;;;;;;13.90;4.10;;;;;;;18.75;100.00;101444.34;5071049;28;20056;-40
2021/09/11 07:05:04;;;;;;;9.63;4.03;;;;;;;18.77;100.00;101442.00;5071946;28;20053;-37
2021/09/11 07:07:32;;;;;;;6.93;3.30;;;;;;;18.78;100.00;101449.31;5071115;28;20044;-37
2021/09/11 07:10:06;;;;;;;10.85;4.70;;;;;;;18.80;100.00;101452.59;5071302;28;20049;-36
2021/09/11 07:12:34;;;;;;;10.18;4.30;;;;;;;18.80;100.00;101452.59;5071549;28;20056;-40
2021/09/11 07:15:02;;;;;;;10.15;4.63;;;;;;;18.78;100.00;101457.78;5071712;28;20143;-38
2021/09/11 07:17:30;;;;;;;11.05;4.93;;;;;;;18.81;100.00;101459.09;5070794;28;20487;-34
2021/09/11 07:19:58;;;;;;;14.73;4.50;;;;;;;18.82;100.00;101460.75;5071311;28;20052;-41
2021/09/11 07:22:26;;;;;;;13.32;5.18;;;;;;;18.85;100.00;101458.06;5071291;28;20135;-37
2021/09/11 07:24:54;;;;;;;14.38;5.03;;;;;;;18.87;100.00;101467.06;5067952;28;20084;-35
2021/09/11 07:27:23;;;;;;;9.00;4.10;;;;;;;18.91;100.00;101482.16;5071200;28;20123;-34
2021/09/11 07:29:51;;;;;;;10.35;4.63;;;;;;;18.93;100.00;101473.34;5071040;28;20040;-36
2021/09/11 07:32:19;;;;;;;10.15;4.30;;;;;;;18.93;100.00;101476.19;5070486;28;20495;-36
2021/09/11 07:34:47;;;;;;;8.20;4.68;;;;;;;18.96;100.00;101483.16;5070676;28;20063;-37
2021/09/11 07:37:14;;;;;;;8.50;4.40;;;;;;;18.97;100.00;101482.81;5069845;28;20462;-36
2021/09/11 07:39:42;;;;;;;10.32;5.40;;;;;;;18.99;100.00;101486.09;5070170;28;20080;-40
2021/09/11 07:42:10;;;;;;;8.75;4.13;;;;;;;18.99;100.00;101488.09;5070488;28;20515;-32
2021/09/11 07:44:39;;;;;;;12.27;4.50;;;;;;;18.98;100.00;101489.31;5069480;28;20052;-40
2021/09/11 07:47:07;;;;;;;11.68;4.18;;;;;;;18.97;100.00;101485.66;5070756;28;20058;-35
2021/09/11 07:49:35;;;;;;;11.13;4.28;;;;;;;19.00;100.00;101486.94;5070782;28;20040;-38
2021/09/11 07:52:03;;;;;;;11.93;4.55;;;;;;;19.03;100.00;101489.91;5070341;28;20051;-34
2021/09/11 07:54:31;;;;;;;11.88;4.07;;;;;;;19.07;100.00;101484.41;5070370;28;20109;-36
2021/09/11 07:56:59;;;;;;;8.82;4.68;;;;;;;19.14;100.00;101496.03;5070587;28;20499;-39
2021/09/11 07:59:27;;;;;;;11.27;4.35;;;;;;;19.18;100.00;101497.81;5069532;28;20059;-38
2021/09/11 08:01:56;;;;;;;9.18;4.85;;;;;;;19.25;100.00;101500.09;5070499;28;20492;-35
2021/09/11 08:04:24;;;;;;;7.70;3.50;;;;;;;19.27;100.00;101492.09;5070231;28;20040;-37
2021/09/11 08:06:52;;;;;;;12.57;4.80;;;;;;;19.32;100.00;101496.75;5070201;28;20052;-41
2021/09/11 08:09:20;;;;;;;9.25;5.05;;;;;;;19.34;100.00;101503.72;5069895;28;20045;-41
2021/09/11 08:11:48;;;;;;;9.65;4.35;;;;;;;19.36;100.00;101509.88;5070647;28;20159;-34
2021/09/11 08:14:16;;;;;;;7.78;3.95;;;;;;;19.38;100.00;101509.53;5069220;28;20044;-37
2021/09/11 08:16:44;;;;;;;11.27;3.97;;;;;;;19.38;100.00;101509.53;5070585;28;20436;-40
2021/09/11 08:19:13;;;;;;;12.45;4.20;;;;;;;19.40;100.00;101512.81;5070248;28;20040;-38
2021/09/11 08:21:41;;;;;;;8.75;3.42;;;;;;;19.43;100.00;101514.97;5069999;28;20078;-34
2021/09/11 08:24:09;;;;;;;9.20;4.28;;;;;;;19.41;100.00;101517.31;5070009;28;20490;-39
2021/09/11 08:26:36;;;;;;;10.90;4.32;;;;;;;19.39;100.00;101520.50;5069712;28;20518;-38
2021/09/11 08:29:04;;;;;;;11.30;4.30;;;;;;;19.37;100.00;101524.84;5069731;28;20049;-38
2021/09/11 08:31:32;;;;;;;7.30;3.63;;;;;;;19.34;100.00;101523.53;5085840;28;20062;-37
2021/09/11 08:34:00;;;;;;;7.35;4.72;;;;;;;19.32;100.00;101523.06;5069487;28;20111;-33
2021/09/11 08:36:30;;;;;;;10.23;4.80;;;;;;;19.32;100.00;101531.53;5070110;28;20045;-33
2021/09/11 08:39:17;;;;;;;7.80;4.13;;;;;;;19.37;100.00;101534.19;5050645;28;20475;-36
2021/09/11 08:41:46;;;;;;;10.20;4.32;;;;;;;19.47;100.00;101527.28;5069481;28;20096;-37
2021/09/11 08:44:14;;;;;;;8.40;4.25;;;;;;;19.57;100.00;101527.75;5069780;28;20149;-40
2021/09/11 08:46:42;;;;;;;10.25;4.85;;;;;;;19.67;100.00;101528.50;5069463;28;20131;-33
2021/09/11 08:49:11;;;;;;;8.05;5.05;;;;;;;19.70;100.00;101536.31;5068809;28;20733;-37
2021/09/11 08:51:40;;;;;;;8.63;5.00;;;;;;;19.74;100.00;101528.78;5069291;28;20532;-34
2021/09/11 08:54:08;;;;;;;10.82;5.43;;;;;;;19.79;100.00;101532.22;5071812;28;20463;-37
2021/09/11 08:56:38;;;;;;;8.85;5.20;;;;;;;19.82;100.00;101534.38;5073114;28;20056;-42
2021/09/11 08:59:07;;;;;;;10.93;5.45;;;;;;;19.84;100.00;101531.19;5074094;28;20052;-37
2021/09/11 09:01:35;;;;;;;9.68;5.18;;;;;;;19.86;100.00;101537.34;5073705;28;20049;-39
2021/09/11 09:04:04;;;;;;;9.15;5.10;;;;;;;19.92;100.00;101547.31;5073396;28;20556;-38
2021/09/11 09:06:40;;;;;;;11.40;5.35;;;;;;;19.98;100.00;101545.09;5073834;28;20052;-34
2021/09/11 09:09:10;;;;;;;10.45;5.07;;;;;;;20.04;100.00;101547.34;5073741;28;20063;-44
2021/09/11 09:11:41;;;;;;;8.55;4.75;;;;;;;20.08;100.00;101553.16;5073381;28;20506;-40
2021/09/11 09:14:12;;;;;;;9.95;4.53;;;;;;;20.11;100.00;101553.31;5074096;28;20076;-41
2021/09/11 09:16:42;;;;;;;9.32;4.72;;;;;;;20.15;100.00;101547.78;5072735;28;20092;-40
2021/09/11 09:19:15;;;;;;;12.88;7.40;;;;;;;20.18;99.90;101552.75;5074166;28;20057;-39
2021/09/11 09:21:46;;;;;;;14.88;9.75;;;;;;;20.17;99.16;101549.09;5073543;28;20384;-36
2021/09/11 09:24:26;;;;;;;11.35;8.15;;;;;;;20.20;99.28;101556.88;5073320;28;20131;-35
2021/09/11 09:26:56;;;;;;;13.10;8.80;;;;;;;20.24;98.85;101551.34;5073283;28;20445;-39
2021/09/11 09:29:28;;;;;;;15.93;10.90;;;;;;;20.22;98.06;101550.84;5073646;28;20044;-36
2021/09/11 09:31:59;;;;;;;11.00;7.38;;;;;;;20.21;97.56;101552.84;5072783;28;20959;-36
2021/09/11 09:34:36;;;;;;;14.10;9.43;;;;;;;20.19;97.84;101558.03;5073684;28;20040;-37
2021/09/11 09:37:07;;;;;;;16.60;10.45;;;;;;;20.16;97.74;101553.09;5073128;28;20072;-33
2021/09/11 09:39:39;;;;;;;12.80;8.48;;;;;;;20.12;97.85;101559.78;5072941;28;20045;-38
2021/09/11 09:42:07;;;;;;;;;;;;;;;20.02;96.90;101561.03;5073669;28;20106;-36
2021/09/11 09:44:42;;;;;;;12.30;7.45;;;;;;;19.95;98.23;101560.78;5072789;28;19955;-34
2021/09/11 09:47:13;;;;;;;12.63;8.75;;;;;;;19.96;98.36;101562.44;5072850;28;20072;-33
2021/09/11 09:49:42;;;;;;;10.68;7.43;;;;;;;19.94;98.26;101561.94;5073528;28;20052;-38
2021/09/11 09:52:11;;;;;;;14.48;9.02;;;;;;;19.94;98.60;101564.78;5072293;28;20127;-40
2021/09/11 09:54:39;;;;;;;10.00;6.78;;;;;;;19.95;98.94;101566.44;5073309;28;20143;-38
2021/09/11 09:57:08;;;;;;;15.02;8.50;;;;;;;20.00;98.99;101565.38;5072971;28;20560;-38
2021/09/11 09:59:38;;;;;;;14.18;8.02;;;;;;;19.95;98.56;101561.59;5072255;28;20114;-35
2021/09/11 10:02:05;;;;;;;13.68;6.97;;;;;;;19.94;99.09;101550.63;5072796;28;20076;-38
2021/09/11 10:04:35;;;;;;;13.73;8.40;;;;;;;19.98;99.30;101565.75;5071958;28;20059;-36
2021/09/11 10:07:06;;;;;;;13.02;7.88;;;;;;;19.95;99.23;101555.13;5072290;28;20144;-32
2021/09/11 10:09:37;;;;;;;14.10;7.77;;;;;;;19.95;99.33;101555.13;5069473;28;20049;-37
2021/09/11 10:12:28;;;;;;;16.48;8.50;;;;;;;19.90;99.36;101558.16;5053082;28;20295;-34
2021/09/11 10:15:23;;;;;;;16.77;10.40;;;;;;;19.84;99.37;101556.69;5070541;28;20102;-32
2021/09/11 10:17:51;;;;;;;15.40;10.35;;;;;;;19.81;99.66;101566.69;5072852;28;20078;-36
2021/09/11 10:20:19;;;;;;;15.65;10.15;;;;;;;19.84;99.77;101560.34;5072041;28;20586;-36
2021/09/11 10:23:06;;;;;;;20.27;11.32;;;;;;;19.91;99.74;101554.13;5072576;28;20048;-34
2021/09/11 10:25:43;;;;;;;21.50;12.10;;;;;;;19.92;99.71;101552.97;5072139;28;20055;-38
2021/09/11 10:28:12;;;;;;;19.65;13.00;;;;;;;19.91;99.86;101554.97;5071886;28;20067;-42
2021/09/11 10:31:02;;;;;;;22.90;13.30;;;;;;;19.91;99.46;101554.97;5072347;28;20053;-38
2021/09/11 10:33:40;;;;;;;20.10;13.25;;;;;;;19.85;99.45;101552.69;5071916;28;20452;-36
2021/09/11 10:36:12;;;;;;;18.88;12.25;;;;;;;19.82;99.83;101544.88;5070961;28;20052;-34
2021/09/11 10:38:42;;;;;;;17.45;12.07;;;;;;;19.78;99.74;101552.41;5072072;28;20052;-33
2021/09/11 10:41:14;;;;;;;18.23;11.90;;;;;;;19.72;100.00;101557.44;5071737;28;20140;-40
2021/09/11 10:44:03;;;;;;;16.83;10.35;;;;;;;19.69;100.00;101558.13;5072167;28;20068;-37
2021/09/11 10:46:46;;;;;;;11.90;7.80;;;;;;;19.66;100.00;101555.16;5069171;28;20490;-35
2021/09/11 10:49:28;;;;;;;18.23;11.60;;;;;;;19.65;100.00;101559.16;5069352;28;20145;-40
2021/09/11 10:52:02;;;;;;;19.67;12.88;;;;;;;19.63;100.00;101555.84;5070505;28;20051;-38
2021/09/11 10:54:31;;;;;;;17.98;12.13;;;;;;;19.61;100.00;101557.00;5071003;28;20056;-40
2021/09/11 10:57:12;;;;;;;11.40;7.95;;;;;;;19.61;100.00;101559.84;5070541;28;20076;-36
2021/09/11 10:59:44;;;;;;;20.25;12.98;;;;;;;19.59;100.00;101556.53;5070125;28;20556;-43
2021/09/11 11:02:21;;;;;;;;;;;;;;;19.54;100.00;101562.41;5067387;28;20086;-36
2021/09/11 11:04:55;;;;;;;12.63;7.75;;;;;;;19.53;100.00;101560.75;5070700;28;19929;-37
2021/09/11 11:07:26;;;;;;;14.52;9.57;;;;;;;19.57;100.00;101566.56;5070876;28;20094;-41
2021/09/11 11:09:56;;;;;;;19.77;11.95;;;;;;;19.57;100.00;101560.91;5070230;28;20053;-35
2021/09/11 11:12:28;;;;;;;17.08;10.73;;;;;;;19.57;100.00;101567.38;5070939;28;20044;-42
2021/09/11 11:14:58;;;;;;;17.73;10.88;;;;;;;19.58;100.00;101565.38;5070643;28;20075;-34
2021/09/11 11:17:27;;;;;;;17.92;11.93;;;;;;;19.60;100.00;101563.84;5068911;28;20086;-38
2021/09/11 11:19:57;;;;;;;15.32;9.80;;;;;;;19.60;100.00;101571.50;5070848;28;20477;-36